Terminal Aerodrome Forecast
Issued by NWS Charleston, WV

Home | Current Version | Previous Version | Text Only | Print | Product List | Glossary On
Versions: 1 2 3 4 5 6 7 8 9 10 11 12 13 14 15 16 17 18 19 20 21 22 23 24 25 26
000
FTUS41 KRLX 171700
TAFCRW
TAF
KCRW 171736Z 1718/1818 00000KT P6SM BKN025
     FM171815 00000KT P6SM SCT030
     FM180300 00000KT 6SM BR SCT045
     FM180500 00000KT 1/2SM FG VV001
     FM181300 00000KT 2SM BR BKN003
     FM181400 00000KT 6SM BR SCT005
     FM181500 00000KT P6SM SCT040=

USA.gov is the U.S. government's official web portal to all federal, state and local government web resources and services.